sensor_id;sensor_type;location;lat;lon;timestamp;temperature;humidity
52575;DHT22;38468;48.114;-1.684;2023-12-20T00:00:25;9.00;82.60
52575;DHT22;38468;48.114;-1.684;2023-12-20T00:02:26;9.00;82.60
52575;DHT22;38468;48.114;-1.684;2023-12-20T00:04:26;9.00;82.50
52575;DHT22;38468;48.114;-1.684;2023-12-20T00:06:27;9.00;82.60
52575;DHT22;38468;48.114;-1.684;2023-12-20T00:08:27;9.00;82.60
52575;DHT22;38468;48.114;-1.684;2023-12-20T00:10:28;9.00;82.50
52575;DHT22;38468;48.114;-1.684;2023-12-20T00:12:29;9.00;82.40
52575;DHT22;38468;48.114;-1.684;2023-12-20T00:14:29;9.00;82.40
52575;DHT22;38468;48.114;-1.684;2023-12-20T00:16:30;8.90;82.30
52575;DHT22;38468;48.114;-1.684;2023-12-20T00:18:32;9.00;82.30
52575;DHT22;38468;48.114;-1.684;2023-12-20T00:20:32;8.90;82.30
52575;DHT22;38468;48.114;-1.684;2023-12-20T00:22:33;8.90;82.30
52575;DHT22;38468;48.114;-1.684;2023-12-20T00:24:33;8.90;82.20
52575;DHT22;38468;48.114;-1.684;2023-12-20T00:26:34;8.90;82.20
52575;DHT22;38468;48.114;-1.684;2023-12-20T00:28:35;9.00;82.20
52575;DHT22;38468;48.114;-1.684;2023-12-20T00:30:35;8.90;82.10
52575;DHT22;38468;48.114;-1.684;2023-12-20T00:32:36;8.90;82.10
52575;DHT22;38468;48.114;-1.684;2023-12-20T00:34:37;8.90;82.00
52575;DHT22;38468;48.114;-1.684;2023-12-20T00:36:37;8.90;82.00
52575;DHT22;38468;48.114;-1.684;2023-12-20T00:38:38;8.90;81.90
52575;DHT22;38468;48.114;-1.684;2023-12-20T00:40:39;8.90;81.90
52575;DHT22;38468;48.114;-1.684;2023-12-20T00:42:39;8.90;81.80
52575;DHT22;38468;48.114;-1.684;2023-12-20T00:44:40;8.90;81.80
52575;DHT22;38468;48.114;-1.684;2023-12-20T00:46:40;8.80;81.80
52575;DHT22;38468;48.114;-1.684;2023-12-20T00:48:41;8.90;81.70
52575;DHT22;38468;48.114;-1.684;2023-12-20T00:50:42;8.90;81.70
52575;DHT22;38468;48.114;-1.684;2023-12-20T00:52:43;8.90;81.70
52575;DHT22;38468;48.114;-1.684;2023-12-20T00:54:44;8.90;81.70
52575;DHT22;38468;48.114;-1.684;2023-12-20T00:56:44;8.90;81.70
52575;DHT22;38468;48.114;-1.684;2023-12-20T00:58:45;8.90;81.60
52575;DHT22;38468;48.114;-1.684;2023-12-20T01:00:45;8.90;81.60
52575;DHT22;38468;48.114;-1.684;2023-12-20T01:02:47;8.80;81.60
52575;DHT22;38468;48.114;-1.684;2023-12-20T01:04:49;8.90;81.50
52575;DHT22;38468;48.114;-1.684;2023-12-20T01:06:50;8.80;81.50
52575;DHT22;38468;48.114;-1.684;2023-12-20T01:08:50;8.80;81.50
52575;DHT22;38468;48.114;-1.684;2023-12-20T01:10:51;8.80;81.40
52575;DHT22;38468;48.114;-1.684;2023-12-20T01:12:52;8.80;81.40
52575;DHT22;38468;48.114;-1.684;2023-12-20T01:14:53;8.80;81.40
52575;DHT22;38468;48.114;-1.684;2023-12-20T01:16:53;8.80;81.40
52575;DHT22;38468;48.114;-1.684;2023-12-20T01:18:54;8.80;81.30
52575;DHT22;38468;48.114;-1.684;2023-12-20T01:20:54;8.80;81.30
52575;DHT22;38468;48.114;-1.684;2023-12-20T01:22:55;8.80;81.30
52575;DHT22;38468;48.114;-1.684;2023-12-20T01:24:55;8.70;81.20
52575;DHT22;38468;48.114;-1.684;2023-12-20T01:26:56;8.80;81.20
52575;DHT22;38468;48.114;-1.684;2023-12-20T01:28:57;8.70;81.20
52575;DHT22;38468;48.114;-1.684;2023-12-20T01:30:58;8.80;81.30
52575;DHT22;38468;48.114;-1.684;2023-12-20T01:33:00;8.80;81.30
52575;DHT22;38468;48.114;-1.684;2023-12-20T01:35:01;8.80;81.30
52575;DHT22;38468;48.114;-1.684;2023-12-20T01:37:02;8.90;81.30
52575;DHT22;38468;48.114;-1.684;2023-12-20T01:39:03;8.90;81.20
52575;DHT22;38468;48.114;-1.684;2023-12-20T01:41:04;8.90;81.20
52575;DHT22;38468;48.114;-1.684;2023-12-20T01:43:08;8.80;81.00
52575;DHT22;38468;48.114;-1.684;2023-12-20T01:45:09;8.80;81.00
52575;DHT22;38468;48.114;-1.684;2023-12-20T01:47:10;8.80;81.00
52575;DHT22;38468;48.114;-1.684;2023-12-20T01:49:10;8.80;81.00
52575;DHT22;38468;48.114;-1.684;2023-12-20T01:51:11;8.80;80.90
52575;DHT22;38468;48.114;-1.684;2023-12-20T01:53:12;8.80;80.90
52575;DHT22;38468;48.114;-1.684;2023-12-20T01:55:14;8.70;80.90
52575;DHT22;38468;48.114;-1.684;2023-12-20T01:57:15;8.70;80.90
52575;DHT22;38468;48.114;-1.684;2023-12-20T01:59:18;8.70;80.80
52575;DHT22;38468;48.114;-1.684;2023-12-20T02:01:19;8.80;80.90
52575;DHT22;38468;48.114;-1.684;2023-12-20T02:03:20;8.80;80.90
52575;DHT22;38468;48.114;-1.684;2023-12-20T02:05:22;8.70;80.80
52575;DHT22;38468;48.114;-1.684;2023-12-20T02:07:23;8.80;80.70
52575;DHT22;38468;48.114;-1.684;2023-12-20T02:09:23;8.80;80.60
52575;DHT22;38468;48.114;-1.684;2023-12-20T02:11:25;8.70;80.50
52575;DHT22;38468;48.114;-1.684;2023-12-20T02:13:26;8.70;80.60
52575;DHT22;38468;48.114;-1.684;2023-12-20T02:15:27;8.70;80.60
52575;DHT22;38468;48.114;-1.684;2023-12-20T02:17:27;8.70;80.60
52575;DHT22;38468;48.114;-1.684;2023-12-20T02:19:28;8.80;80.60
52575;DHT22;38468;48.114;-1.684;2023-12-20T02:21:32;8.80;80.60
52575;DHT22;38468;48.114;-1.684;2023-12-20T02:23:34;8.80;80.60
52575;DHT22;38468;48.114;-1.684;2023-12-20T02:25:34;8.80;80.60
52575;DHT22;38468;48.114;-1.684;2023-12-20T02:27:35;8.80;80.60
52575;DHT22;38468;48.114;-1.684;2023-12-20T02:29:36;8.80;80.50
52575;DHT22;38468;48.114;-1.684;2023-12-20T02:31:36;8.80;80.50
52575;DHT22;38468;48.114;-1.684;2023-12-20T02:33:37;8.80;80.50
52575;DHT22;38468;48.114;-1.684;2023-12-20T02:35:39;8.80;80.50
52575;DHT22;38468;48.114;-1.684;2023-12-20T02:37:40;8.80;80.50
52575;DHT22;38468;48.114;-1.684;2023-12-20T02:39:41;8.80;80.50
52575;DHT22;38468;48.114;-1.684;2023-12-20T02:41:41;8.80;80.40
52575;DHT22;38468;48.114;-1.684;2023-12-20T02:43:42;8.80;80.40
52575;DHT22;38468;48.114;-1.684;2023-12-20T02:45:42;8.80;80.40
52575;DHT22;38468;48.114;-1.684;2023-12-20T02:47:43;8.80;80.40
52575;DHT22;38468;48.114;-1.684;2023-12-20T02:49:44;8.90;80.40
52575;DHT22;38468;48.114;-1.684;2023-12-20T02:51:44;8.80;80.30
52575;DHT22;38468;48.114;-1.684;2023-12-20T02:53:45;8.80;80.20
52575;DHT22;38468;48.114;-1.684;2023-12-20T02:55:45;8.80;80.10
52575;DHT22;38468;48.114;-1.684;2023-12-20T02:57:46;8.70;80.10
52575;DHT22;38468;48.114;-1.684;2023-12-20T02:59:47;8.60;79.90
52575;DHT22;38468;48.114;-1.684;2023-12-20T03:01:47;8.60;80.00
52575;DHT22;38468;48.114;-1.684;2023-12-20T03:03:48;8.60;80.00
52575;DHT22;38468;48.114;-1.684;2023-12-20T03:05:49;8.60;80.00
52575;DHT22;38468;48.114;-1.684;2023-12-20T03:07:50;8.60;80.00
52575;DHT22;38468;48.114;-1.684;2023-12-20T03:09:51;8.60;80.00
52575;DHT22;38468;48.114;-1.684;2023-12-20T03:11:51;8.50;80.00
52575;DHT22;38468;48.114;-1.684;2023-12-20T03:13:52;8.60;80.00
52575;DHT22;38468;48.114;-1.684;2023-12-20T03:15:53;8.60;80.00
52575;DHT22;38468;48.114;-1.684;2023-12-20T03:17:53;8.60;80.00
52575;DHT22;38468;48.114;-1.684;2023-12-20T03:19:54;8.50;79.80
52575;DHT22;38468;48.114;-1.684;2023-12-20T03:21:54;8.40;79.80
52575;DHT22;38468;48.114;-1.684;2023-12-20T03:23:55;8.40;79.80
52575;DHT22;38468;48.114;-1.684;2023-12-20T03:25:56;8.40;79.90
52575;DHT22;38468;48.114;-1.684;2023-12-20T03:27:57;8.40;79.90
52575;DHT22;38468;48.114;-1.684;2023-12-20T03:29:57;8.40;79.90
52575;DHT22;38468;48.114;-1.684;2023-12-20T03:31:58;8.40;79.80
52575;DHT22;38468;48.114;-1.684;2023-12-20T03:33:59;8.40;79.80
52575;DHT22;38468;48.114;-1.684;2023-12-20T03:35:59;8.40;79.90
52575;DHT22;38468;48.114;-1.684;2023-12-20T03:38:00;8.40;79.90
52575;DHT22;38468;48.114;-1.684;2023-12-20T03:40:01;8.50;79.90
52575;DHT22;38468;48.114;-1.684;2023-12-20T03:42:02;8.50;79.90
52575;DHT22;38468;48.114;-1.684;2023-12-20T03:44:02;8.50;79.80
52575;DHT22;38468;48.114;-1.684;2023-12-20T03:46:03;8.50;79.80
52575;DHT22;38468;48.114;-1.684;2023-12-20T03:48:05;8.50;79.80
52575;DHT22;38468;48.114;-1.684;2023-12-20T03:50:06;8.50;79.70
52575;DHT22;38468;48.114;-1.684;2023-12-20T03:52:07;8.50;79.70
52575;DHT22;38468;48.114;-1.684;2023-12-20T03:54:08;8.50;79.70
52575;DHT22;38468;48.114;-1.684;2023-12-20T03:56:08;8.40;79.60
52575;DHT22;38468;48.114;-1.684;2023-12-20T03:58:09;8.50;79.60
52575;DHT22;38468;48.114;-1.684;2023-12-20T04:00:10;8.40;79.60
52575;DHT22;38468;48.114;-1.684;2023-12-20T04:02:11;8.40;79.60
52575;DHT22;38468;48.114;-1.684;2023-12-20T04:04:13;8.30;79.40
52575;DHT22;38468;48.114;-1.684;2023-12-20T04:06:18;8.30;79.50
52575;DHT22;38468;48.114;-1.684;2023-12-20T04:08:19;8.30;79.50
52575;DHT22;38468;48.114;-1.684;2023-12-20T04:10:20;8.30;79.60
52575;DHT22;38468;48.114;-1.684;2023-12-20T04:12:21;8.30;79.70
52575;DHT22;38468;48.114;-1.684;2023-12-20T04:14:21;8.30;79.70
52575;DHT22;38468;48.114;-1.684;2023-12-20T04:16:22;8.40;79.70
52575;DHT22;38468;48.114;-1.684;2023-12-20T04:18:22;8.40;79.70
52575;DHT22;38468;48.114;-1.684;2023-12-20T04:20:23;8.40;79.70
52575;DHT22;38468;48.114;-1.684;2023-12-20T04:22:24;8.40;79.70
52575;DHT22;38468;48.114;-1.684;2023-12-20T04:24:24;8.50;79.70
52575;DHT22;38468;48.114;-1.684;2023-12-20T04:26:25;8.40;79.70
52575;DHT22;38468;48.114;-1.684;2023-12-20T04:28:25;8.50;79.60
52575;DHT22;38468;48.114;-1.684;2023-12-20T04:30:26;8.50;79.60
52575;DHT22;38468;48.114;-1.684;2023-12-20T04:32:27;8.50;79.60
52575;DHT22;38468;48.114;-1.684;2023-12-20T04:34:27;8.40;79.60
52575;DHT22;38468;48.114;-1.684;2023-12-20T04:36:28;8.40;79.50
52575;DHT22;38468;48.114;-1.684;2023-12-20T04:38:30;8.40;79.50
52575;DHT22;38468;48.114;-1.684;2023-12-20T04:40:31;8.50;79.60
52575;DHT22;38468;48.114;-1.684;2023-12-20T04:42:32;8.50;79.50
52575;DHT22;38468;48.114;-1.684;2023-12-20T04:44:33;8.40;79.50
52575;DHT22;38468;48.114;-1.684;2023-12-20T04:46:33;8.50;79.50
52575;DHT22;38468;48.114;-1.684;2023-12-20T04:48:34;8.40;79.40
52575;DHT22;38468;48.114;-1.684;2023-12-20T04:50:34;8.40;79.50
52575;DHT22;38468;48.114;-1.684;2023-12-20T04:52:35;8.40;79.40
52575;DHT22;38468;48.114;-1.684;2023-12-20T04:54:36;8.40;79.40
52575;DHT22;38468;48.114;-1.684;2023-12-20T04:56:38;8.40;79.50
52575;DHT22;38468;48.114;-1.684;2023-12-20T04:58:38;8.40;79.50
52575;DHT22;38468;48.114;-1.684;2023-12-20T05:00:39;8.40;79.40
52575;DHT22;38468;48.114;-1.684;2023-12-20T05:02:40;8.40;79.50
52575;DHT22;38468;48.114;-1.684;2023-12-20T05:04:41;8.30;79.50
52575;DHT22;38468;48.114;-1.684;2023-12-20T05:06:42;8.30;79.50
52575;DHT22;38468;48.114;-1.684;2023-12-20T05:08:42;8.40;79.60
52575;DHT22;38468;48.114;-1.684;2023-12-20T05:10:43;8.40;79.60
52575;DHT22;38468;48.114;-1.684;2023-12-20T05:12:44;8.40;79.60
52575;DHT22;38468;48.114;-1.684;2023-12-20T05:14:44;8.40;79.60
52575;DHT22;38468;48.114;-1.684;2023-12-20T05:16:45;8.40;79.70
52575;DHT22;38468;48.114;-1.684;2023-12-20T05:18:47;8.40;79.70
52575;DHT22;38468;48.114;-1.684;2023-12-20T05:20:48;8.40;79.70
52575;DHT22;38468;48.114;-1.684;2023-12-20T05:22:49;8.40;79.60
52575;DHT22;38468;48.114;-1.684;2023-12-20T05:24:50;8.40;79.60
52575;DHT22;38468;48.114;-1.684;2023-12-20T05:26:50;8.40;79.60
52575;DHT22;38468;48.114;-1.684;2023-12-20T05:28:51;8.40;79.50
52575;DHT22;38468;48.114;-1.684;2023-12-20T05:30:51;8.40;79.40
52575;DHT22;38468;48.114;-1.684;2023-12-20T05:32:52;8.40;79.40
52575;DHT22;38468;48.114;-1.684;2023-12-20T05:34:53;8.40;79.40
52575;DHT22;38468;48.114;-1.684;2023-12-20T05:36:53;8.30;79.30
52575;DHT22;38468;48.114;-1.684;2023-12-20T05:38:54;8.30;79.40
52575;DHT22;38468;48.114;-1.684;2023-12-20T05:40:54;8.30;79.40
52575;DHT22;38468;48.114;-1.684;2023-12-20T05:42:55;8.30;79.40
52575;DHT22;38468;48.114;-1.684;2023-12-20T05:44:56;8.30;79.40
52575;DHT22;38468;48.114;-1.684;2023-12-20T05:46:56;8.30;79.40
52575;DHT22;38468;48.114;-1.684;2023-12-20T05:48:57;8.30;79.40
52575;DHT22;38468;48.114;-1.684;2023-12-20T05:50:57;8.30;79.40
52575;DHT22;38468;48.114;-1.684;2023-12-20T05:52:58;8.30;79.40
52575;DHT22;38468;48.114;-1.684;2023-12-20T05:54:59;8.20;79.40
52575;DHT22;38468;48.114;-1.684;2023-12-20T05:57:01;8.30;79.50
52575;DHT22;38468;48.114;-1.684;2023-12-20T05:59:02;8.20;79.50
52575;DHT22;38468;48.114;-1.684;2023-12-20T06:01:06;8.20;79.50
52575;DHT22;38468;48.114;-1.684;2023-12-20T06:03:08;8.20;79.50
52575;DHT22;38468;48.114;-1.684;2023-12-20T06:05:09;8.20;79.60
52575;DHT22;38468;48.114;-1.684;2023-12-20T06:07:13;8.20;79.60
52575;DHT22;38468;48.114;-1.684;2023-12-20T06:09:14;8.20;79.60
52575;DHT22;38468;48.114;-1.684;2023-12-20T06:11:15;8.20;79.70
52575;DHT22;38468;48.114;-1.684;2023-12-20T06:13:16;8.20;79.70
52575;DHT22;38468;48.114;-1.684;2023-12-20T06:15:16;8.30;79.80
52575;DHT22;38468;48.114;-1.684;2023-12-20T06:17:17;8.20;79.80
52575;DHT22;38468;48.114;-1.684;2023-12-20T06:19:18;8.20;79.80
52575;DHT22;38468;48.114;-1.684;2023-12-20T06:21:18;8.30;79.80
52575;DHT22;38468;48.114;-1.684;2023-12-20T06:23:19;8.30;79.90
52575;DHT22;38468;48.114;-1.684;2023-12-20T06:25:20;8.30;79.90
52575;DHT22;38468;48.114;-1.684;2023-12-20T06:27:20;8.30;79.90
52575;DHT22;38468;48.114;-1.684;2023-12-20T06:29:21;8.30;79.90
52575;DHT22;38468;48.114;-1.684;2023-12-20T06:31:21;8.30;80.00
52575;DHT22;38468;48.114;-1.684;2023-12-20T06:33:22;8.40;80.00
52575;DHT22;38468;48.114;-1.684;2023-12-20T06:35:23;8.40;80.00
52575;DHT22;38468;48.114;-1.684;2023-12-20T06:37:24;8.40;80.00
52575;DHT22;38468;48.114;-1.684;2023-12-20T06:39:24;8.40;80.00
52575;DHT22;38468;48.114;-1.684;2023-12-20T06:41:25;8.40;80.00
52575;DHT22;38468;48.114;-1.684;2023-12-20T06:43:26;8.40;80.00
52575;DHT22;38468;48.114;-1.684;2023-12-20T06:45:26;8.40;80.00
52575;DHT22;38468;48.114;-1.684;2023-12-20T06:47:27;8.40;80.00
52575;DHT22;38468;48.114;-1.684;2023-12-20T06:49:27;8.40;80.00
52575;DHT22;38468;48.114;-1.684;2023-12-20T06:51:28;8.40;80.00
52575;DHT22;38468;48.114;-1.684;2023-12-20T06:53:29;8.40;80.00
52575;DHT22;38468;48.114;-1.684;2023-12-20T06:55:30;8.40;80.00
52575;DHT22;38468;48.114;-1.684;2023-12-20T06:57:31;8.40;80.00
52575;DHT22;38468;48.114;-1.684;2023-12-20T06:59:31;8.50;80.10
52575;DHT22;38468;48.114;-1.684;2023-12-20T07:01:32;8.40;80.10
52575;DHT22;38468;48.114;-1.684;2023-12-20T07:03:33;8.50;80.10
52575;DHT22;38468;48.114;-1.684;2023-12-20T07:05:33;8.40;80.10
52575;DHT22;38468;48.114;-1.684;2023-12-20T07:07:34;8.40;80.10
52575;DHT22;38468;48.114;-1.684;2023-12-20T07:09:35;8.40;80.10
52575;DHT22;38468;48.114;-1.684;2023-12-20T07:11:36;8.40;80.10
52575;DHT22;38468;48.114;-1.684;2023-12-20T07:13:36;8.50;80.10
52575;DHT22;38468;48.114;-1.684;2023-12-20T07:15:37;8.40;80.10
52575;DHT22;38468;48.114;-1.684;2023-12-20T07:17:37;8.40;80.10
52575;DHT22;38468;48.114;-1.684;2023-12-20T07:19:38;8.40;80.10
52575;DHT22;38468;48.114;-1.684;2023-12-20T07:21:39;8.40;80.10
52575;DHT22;38468;48.114;-1.684;2023-12-20T07:23:40;8.40;80.10
52575;DHT22;38468;48.114;-1.684;2023-12-20T07:25:40;8.40;80.10
52575;DHT22;38468;48.114;-1.684;2023-12-20T07:27:41;8.30;80.20
52575;DHT22;38468;48.114;-1.684;2023-12-20T07:29:42;8.30;80.10
52575;DHT22;38468;48.114;-1.684;2023-12-20T07:31:42;8.30;80.20
52575;DHT22;38468;48.114;-1.684;2023-12-20T07:33:43;8.30;80.10
52575;DHT22;38468;48.114;-1.684;2023-12-20T07:35:43;8.30;80.20
52575;DHT22;38468;48.114;-1.684;2023-12-20T07:37:45;8.30;80.20
52575;DHT22;38468;48.114;-1.684;2023-12-20T07:39:46;8.30;80.20
52575;DHT22;38468;48.114;-1.684;2023-12-20T07:41:46;8.30;80.20
52575;DHT22;38468;48.114;-1.684;2023-12-20T07:43:47;8.30;80.20
52575;DHT22;38468;48.114;-1.684;2023-12-20T07:45:48;8.30;80.20
52575;DHT22;38468;48.114;-1.684;2023-12-20T07:47:48;8.20;80.30
52575;DHT22;38468;48.114;-1.684;2023-12-20T07:49:50;8.30;80.40
52575;DHT22;38468;48.114;-1.684;2023-12-20T07:51:52;8.20;80.40
52575;DHT22;38468;48.114;-1.684;2023-12-20T07:53:52;8.20;80.40
52575;DHT22;38468;48.114;-1.684;2023-12-20T07:55:53;8.30;80.50
52575;DHT22;38468;48.114;-1.684;2023-12-20T07:57:53;8.30;80.40
52575;DHT22;38468;48.114;-1.684;2023-12-20T07:59:54;8.30;80.40
52575;DHT22;38468;48.114;-1.684;2023-12-20T08:01:55;8.30;80.40
52575;DHT22;38468;48.114;-1.684;2023-12-20T08:03:56;8.30;80.40
52575;DHT22;38468;48.114;-1.684;2023-12-20T08:05:57;8.30;80.40
52575;DHT22;38468;48.114;-1.684;2023-12-20T08:07:59;8.40;80.50
52575;DHT22;38468;48.114;-1.684;2023-12-20T08:10:00;8.40;80.50
52575;DHT22;38468;48.114;-1.684;2023-12-20T08:12:01;8.40;80.50
52575;DHT22;38468;48.114;-1.684;2023-12-20T08:14:02;8.40;80.50
52575;DHT22;38468;48.114;-1.684;2023-12-20T08:16:02;8.40;80.50
52575;DHT22;38468;48.114;-1.684;2023-12-20T08:18:04;8.40;80.50
52575;DHT22;38468;48.114;-1.684;2023-12-20T08:20:06;8.40;80.50
52575;DHT22;38468;48.114;-1.684;2023-12-20T08:22:06;8.40;80.50
52575;DHT22;38468;48.114;-1.684;2023-12-20T08:24:08;8.40;80.50
52575;DHT22;38468;48.114;-1.684;2023-12-20T08:26:08;8.40;80.60
52575;DHT22;38468;48.114;-1.684;2023-12-20T08:28:09;8.50;80.70
52575;DHT22;38468;48.114;-1.684;2023-12-20T08:30:10;8.50;80.70
52575;DHT22;38468;48.114;-1.684;2023-12-20T08:32:11;8.50;80.80
52575;DHT22;38468;48.114;-1.684;2023-12-20T08:34:11;8.60;80.80
52575;DHT22;38468;48.114;-1.684;2023-12-20T08:36:14;8.70;80.80
52575;DHT22;38468;48.114;-1.684;2023-12-20T08:38:15;8.70;80.90
52575;DHT22;38468;48.114;-1.684;2023-12-20T08:40:17;8.70;80.80
52575;DHT22;38468;48.114;-1.684;2023-12-20T08:42:17;8.70;80.80
52575;DHT22;38468;48.114;-1.684;2023-12-20T08:44:18;8.80;80.80
52575;DHT22;38468;48.114;-1.684;2023-12-20T08:46:19;8.80;80.70
52575;DHT22;38468;48.114;-1.684;2023-12-20T08:48:20;8.80;80.70
52575;DHT22;38468;48.114;-1.684;2023-12-20T08:50:20;8.70;80.70
52575;DHT22;38468;48.114;-1.684;2023-12-20T08:52:21;8.70;80.70
52575;DHT22;38468;48.114;-1.684;2023-12-20T08:54:22;8.70;80.90
52575;DHT22;38468;48.114;-1.684;2023-12-20T08:56:22;8.80;80.90
52575;DHT22;38468;48.114;-1.684;2023-12-20T08:58:23;8.80;81.00
52575;DHT22;38468;48.114;-1.684;2023-12-20T09:00:24;8.90;80.90
52575;DHT22;38468;48.114;-1.684;2023-12-20T09:02:27;8.80;80.80
52575;DHT22;38468;48.114;-1.684;2023-12-20T09:04:29;8.80;80.80
52575;DHT22;38468;48.114;-1.684;2023-12-20T09:06:29;8.80;80.80
52575;DHT22;38468;48.114;-1.684;2023-12-20T09:08:30;8.90;81.20
52575;DHT22;38468;48.114;-1.684;2023-12-20T09:10:31;9.30;82.50
52575;DHT22;38468;48.114;-1.684;2023-12-20T09:12:31;9.90;83.30
52575;DHT22;38468;48.114;-1.684;2023-12-20T09:14:32;10.30;83.20
52575;DHT22;38468;48.114;-1.684;2023-12-20T09:16:36;10.40;82.10
52575;DHT22;38468;48.114;-1.684;2023-12-20T09:18:36;10.20;80.80
52575;DHT22;38468;48.114;-1.684;2023-12-20T09:20:37;10.00;80.10
52575;DHT22;38468;48.114;-1.684;2023-12-20T09:22:38;9.80;79.80
52575;DHT22;38468;48.114;-1.684;2023-12-20T09:24:39;9.60;79.60
52575;DHT22;38468;48.114;-1.684;2023-12-20T09:26:40;9.50;79.70
52575;DHT22;38468;48.114;-1.684;2023-12-20T09:28:42;9.50;80.00
52575;DHT22;38468;48.114;-1.684;2023-12-20T09:30:42;9.50;80.40
52575;DHT22;38468;48.114;-1.684;2023-12-20T09:32:45;9.70;80.90
52575;DHT22;38468;48.114;-1.684;2023-12-20T09:34:47;10.00;81.80
52575;DHT22;38468;48.114;-1.684;2023-12-20T09:36:48;10.10;81.30
52575;DHT22;38468;48.114;-1.684;2023-12-20T09:38:48;10.40;81.50
52575;DHT22;38468;48.114;-1.684;2023-12-20T09:40:49;10.80;82.00
52575;DHT22;38468;48.114;-1.684;2023-12-20T09:42:54;11.20;81.70
52575;DHT22;38468;48.114;-1.684;2023-12-20T09:44:58;11.60;81.40
52575;DHT22;38468;48.114;-1.684;2023-12-20T09:47:03;12.10;81.50
52575;DHT22;38468;48.114;-1.684;2023-12-20T09:49:05;12.20;79.70
52575;DHT22;38468;48.114;-1.684;2023-12-20T09:51:06;12.40;78.90
52575;DHT22;38468;48.114;-1.684;2023-12-20T09:53:08;12.60;77.70
52575;DHT22;38468;48.114;-1.684;2023-12-20T09:55:10;12.90;78.60
52575;DHT22;38468;48.114;-1.684;2023-12-20T09:57:10;12.40;75.10
52575;DHT22;38468;48.114;-1.684;2023-12-20T09:59:11;11.80;73.80
52575;DHT22;38468;48.114;-1.684;2023-12-20T10:01:12;11.40;74.80
52575;DHT22;38468;48.114;-1.684;2023-12-20T10:03:14;11.70;77.60
52575;DHT22;38468;48.114;-1.684;2023-12-20T10:05:16;12.40;79.60
52575;DHT22;38468;48.114;-1.684;2023-12-20T10:07:19;12.90;78.80
52575;DHT22;38468;48.114;-1.684;2023-12-20T10:09:19;13.20;78.70
52575;DHT22;38468;48.114;-1.684;2023-12-20T10:11:20;13.60;78.00
52575;DHT22;38468;48.114;-1.684;2023-12-20T10:13:21;14.00;77.80
52575;DHT22;38468;48.114;-1.684;2023-12-20T10:15:21;14.00;76.00
52575;DHT22;38468;48.114;-1.684;2023-12-20T10:17:22;14.30;76.70
52575;DHT22;38468;48.114;-1.684;2023-12-20T10:19:23;14.50;76.00
52575;DHT22;38468;48.114;-1.684;2023-12-20T10:21:25;14.70;75.50
52575;DHT22;38468;48.114;-1.684;2023-12-20T10:23:29;14.90;75.70
52575;DHT22;38468;48.114;-1.684;2023-12-20T10:25:31;14.90;75.30
52575;DHT22;38468;48.114;-1.684;2023-12-20T10:27:32;14.90;73.90
52575;DHT22;38468;48.114;-1.684;2023-12-20T10:29:36;14.80;73.40
52575;DHT22;38468;48.114;-1.684;2023-12-20T10:31:37;14.90;74.10
52575;DHT22;38468;48.114;-1.684;2023-12-20T10:33:40;15.00;74.70
52575;DHT22;38468;48.114;-1.684;2023-12-20T10:35:41;15.20;74.90
52575;DHT22;38468;48.114;-1.684;2023-12-20T10:37:42;15.00;73.20
52575;DHT22;38468;48.114;-1.684;2023-12-20T10:39:43;14.90;72.60
52575;DHT22;38468;48.114;-1.684;2023-12-20T10:41:44;14.90;73.30
52575;DHT22;38468;48.114;-1.684;2023-12-20T10:43:46;15.00;73.90
52575;DHT22;38468;48.114;-1.684;2023-12-20T10:45:47;15.10;73.70
52575;DHT22;38468;48.114;-1.684;2023-12-20T10:47:49;15.20;73.60
52575;DHT22;38468;48.114;-1.684;2023-12-20T10:49:52;15.00;72.20
52575;DHT22;38468;48.114;-1.684;2023-12-20T10:51:54;15.00;72.50
52575;DHT22;38468;48.114;-1.684;2023-12-20T10:53:57;15.10;72.60
52575;DHT22;38468;48.114;-1.684;2023-12-20T10:56:00;15.10;71.40
52575;DHT22;38468;48.114;-1.684;2023-12-20T10:58:09;14.90;70.90
52575;DHT22;38468;48.114;-1.684;2023-12-20T11:00:12;14.90;71.60
52575;DHT22;38468;48.114;-1.684;2023-12-20T11:02:15;14.90;72.30
52575;DHT22;38468;48.114;-1.684;2023-12-20T11:04:19;14.90;71.70
52575;DHT22;38468;48.114;-1.684;2023-12-20T11:07:04;15.00;71.90
52575;DHT22;38468;48.114;-1.684;2023-12-20T11:14:03;14.90;71.50
52575;DHT22;38468;48.114;-1.684;2023-12-20T11:16:05;14.90;71.20
52575;DHT22;38468;48.114;-1.684;2023-12-20T11:18:06;14.90;71.50
52575;DHT22;38468;48.114;-1.684;2023-12-20T11:20:08;15.00;71.00
52575;DHT22;38468;48.114;-1.684;2023-12-20T11:22:10;15.10;71.20
52575;DHT22;38468;48.114;-1.684;2023-12-20T11:24:11;15.20;71.70
52575;DHT22;38468;48.114;-1.684;2023-12-20T11:26:15;15.30;71.00
52575;DHT22;38468;48.114;-1.684;2023-12-20T11:28:21;15.40;71.50
52575;DHT22;38468;48.114;-1.684;2023-12-20T11:30:21;15.50;71.20
52575;DHT22;38468;48.114;-1.684;2023-12-20T11:34:32;15.70;71.00
52575;DHT22;38468;48.114;-1.684;2023-12-20T11:36:33;15.80;70.70
52575;DHT22;38468;48.114;-1.684;2023-12-20T11:38:37;16.00;71.40
52575;DHT22;38468;48.114;-1.684;2023-12-20T11:40:38;16.20;71.70
52575;DHT22;38468;48.114;-1.684;2023-12-20T11:42:39;16.50;72.20
52575;DHT22;38468;48.114;-1.684;2023-12-20T11:44:42;16.80;72.10
52575;DHT22;38468;48.114;-1.684;2023-12-20T11:46:44;17.10;72.10
52575;DHT22;38468;48.114;-1.684;2023-12-20T11:48:44;17.40;71.90
52575;DHT22;38468;48.114;-1.684;2023-12-20T11:50:45;17.60;71.20
52575;DHT22;38468;48.114;-1.684;2023-12-20T11:52:47;17.80;70.80
52575;DHT22;38468;48.114;-1.684;2023-12-20T11:54:48;17.90;70.20
52575;DHT22;38468;48.114;-1.684;2023-12-20T11:56:48;18.00;70.40
52575;DHT22;38468;48.114;-1.684;2023-12-20T11:58:49;18.30;70.50
52575;DHT22;38468;48.114;-1.684;2023-12-20T12:00:50;18.50;70.00
52575;DHT22;38468;48.114;-1.684;2023-12-20T12:02:56;18.60;69.60
52575;DHT22;38468;48.114;-1.684;2023-12-20T12:04:57;18.80;69.50
52575;DHT22;38468;48.114;-1.684;2023-12-20T12:06:59;19.00;68.80
52575;DHT22;38468;48.114;-1.684;2023-12-20T12:08:59;19.20;68.40
52575;DHT22;38468;48.114;-1.684;2023-12-20T12:11:00;19.20;67.50
52575;DHT22;38468;48.114;-1.684;2023-12-20T12:13:01;19.20;67.00
52575;DHT22;38468;48.114;-1.684;2023-12-20T12:15:02;19.10;66.30
52575;DHT22;38468;48.114;-1.684;2023-12-20T12:17:04;19.10;66.70
52575;DHT22;38468;48.114;-1.684;2023-12-20T12:19:04;19.10;65.30
52575;DHT22;38468;48.114;-1.684;2023-12-20T12:21:05;18.90;65.90
52575;DHT22;38468;48.114;-1.684;2023-12-20T12:23:06;18.70;64.40
52575;DHT22;38468;48.114;-1.684;2023-12-20T12:25:11;18.20;63.90
52575;DHT22;38468;48.114;-1.684;2023-12-20T12:27:13;18.00;63.30
52575;DHT22;38468;48.114;-1.684;2023-12-20T12:29:13;17.90;64.50
52575;DHT22;38468;48.114;-1.684;2023-12-20T12:31:14;18.00;65.60
52575;DHT22;38468;48.114;-1.684;2023-12-20T12:33:17;17.90;63.30
52575;DHT22;38468;48.114;-1.684;2023-12-20T12:35:18;17.50;62.60
52575;DHT22;38468;48.114;-1.684;2023-12-20T12:37:19;16.90;61.90
52575;DHT22;38468;48.114;-1.684;2023-12-20T12:39:19;16.50;62.50
52575;DHT22;38468;48.114;-1.684;2023-12-20T12:41:20;16.20;62.00
52575;DHT22;38468;48.114;-1.684;2023-12-20T12:43:21;15.80;62.60
52575;DHT22;38468;48.114;-1.684;2023-12-20T12:45:23;15.60;63.00
52575;DHT22;38468;48.114;-1.684;2023-12-20T12:47:25;15.40;63.20
52575;DHT22;38468;48.114;-1.684;2023-12-20T12:49:28;15.30;63.50